Time;durP1;ratioP1;P1;durP2;ratioP2;P2;SDS_P1;SDS_P2;PMS_P1;PMS_P2;Temp;Humidity;BMP_temperature;BMP_pressure;BME280_temperature;BME280_humidity;BME280_pressure;Samples;Min_cycle;Max_cycle;Signal;HPM_P1;HPM_P2
2023/02/04 00:01:26;;;;;;;1.00;0.35;;;5.50;86.00;;;;;;4994507;28;20034;-75
2023/02/04 00:03:52;;;;;;;0.20;0.20;;;5.50;86.10;;;;;;4994620;28;20034;-74
2023/02/04 00:06:17;;;;;;;0.20;0.20;;;5.50;86.30;;;;;;4994289;28;20475;-74
2023/02/04 00:08:43;;;;;;;0.95;0.65;;;5.50;86.40;;;;;;4994086;28;20041;-75
2023/02/04 00:11:09;;;;;;;0.68;0.40;;;5.50;86.70;;;;;;4994170;28;20034;-74
2023/02/04 00:13:34;;;;;;;1.60;0.40;;;5.50;86.70;;;;;;4994211;28;20105;-74
2023/02/04 00:16:00;;;;;;;0.28;0.28;;;5.50;86.70;;;;;;4994125;28;20039;-75
2023/02/04 00:18:25;;;;;;;0.20;0.20;;;5.50;86.70;;;;;;4994166;28;20538;-75
2023/02/04 00:20:51;;;;;;;0.60;0.50;;;5.50;86.80;;;;;;4994007;28;20030;-74
2023/02/04 00:23:16;;;;;;;0.40;0.40;;;5.50;86.70;;;;;;4994160;28;20057;-75
2023/02/04 00:25:42;;;;;;;0.30;0.30;;;5.50;86.90;;;;;;4993870;28;20033;-75
2023/02/04 00:28:07;;;;;;;0.40;0.38;;;5.50;86.90;;;;;;4994021;28;20494;-76
2023/02/04 00:30:33;;;;;;;1.77;0.40;;;5.50;87.10;;;;;;4993946;28;20317;-75
2023/02/04 00:32:59;;;;;;;0.82;0.60;;;5.50;87.00;;;;;;4993684;28;20356;-75
2023/02/04 00:35:24;;;;;;;2.53;0.40;;;5.50;87.10;;;;;;4993887;28;20124;-75
2023/02/04 00:37:50;;;;;;;0.85;0.40;;;5.50;87.20;;;;;;4993978;28;20018;-76
2023/02/04 00:40:16;;;;;;;1.08;0.50;;;5.50;87.50;;;;;;4993670;28;20026;-76
2023/02/04 00:42:42;;;;;;;0.75;0.45;;;5.50;87.80;;;;;;4994020;28;20105;-75
2023/02/04 00:45:09;;;;;;;0.98;0.70;;;5.60;87.60;;;;;;4997137;28;20494;-75
2023/02/04 00:47:34;;;;;;;1.23;0.40;;;5.50;87.70;;;;;;4996996;28;20077;-74
2023/02/04 00:50:00;;;;;;;1.67;0.40;;;5.60;88.10;;;;;;4993630;28;20072;-74
2023/02/04 00:52:26;;;;;;;2.95;0.43;;;5.60;88.40;;;;;;4976027;28;20034;-74
2023/02/04 00:54:51;;;;;;;0.60;0.50;;;5.60;88.70;;;;;;4993455;28;20029;-74
2023/02/04 00:57:18;;;;;;;1.63;0.70;;;5.50;89.10;;;;;;4993546;28;20038;-75
2023/02/04 00:59:43;;;;;;;1.45;0.60;;;5.50;89.80;;;;;;4976147;28;20030;-75
2023/02/04 01:02:09;;;;;;;0.95;0.85;;;5.50;90.60;;;;;;4976134;28;20028;-74
2023/02/04 01:04:34;;;;;;;0.60;0.57;;;5.40;90.70;;;;;;4993303;28;20034;-73
2023/02/04 01:07:00;;;;;;;0.82;0.68;;;5.40;90.80;;;;;;4993535;28;20475;-74
2023/02/04 01:09:26;;;;;;;1.23;0.68;;;5.50;91.10;;;;;;4993414;28;20104;-74
2023/02/04 01:11:51;;;;;;;1.52;0.63;;;5.50;91.20;;;;;;4993411;28;20080;-74
2023/02/04 01:14:17;;;;;;;0.88;0.60;;;5.50;91.40;;;;;;4993564;28;20084;-74
2023/02/04 01:16:44;;;;;;;0.77;0.70;;;5.50;91.20;;;;;;5009938;28;20029;-74
2023/02/04 01:19:09;;;;;;;1.88;1.05;;;5.60;91.10;;;;;;5012299;28;20026;-74
2023/02/04 01:21:35;;;;;;;1.02;0.80;;;5.50;91.30;;;;;;5012731;28;20036;-74
2023/02/04 01:24:01;;;;;;;0.80;0.80;;;5.50;91.50;;;;;;5012893;28;20041;-74
2023/02/04 01:26:26;;;;;;;1.08;0.98;;;5.50;91.60;;;;;;5012932;28;20084;-74
2023/02/04 01:28:52;;;;;;;0.95;0.82;;;5.50;92.00;;;;;;4995278;28;20038;-74
2023/02/04 01:31:17;;;;;;;3.63;1.00;;;5.50;92.00;;;;;;5012911;28;20022;-74
2023/02/04 01:33:43;;;;;;;1.10;1.00;;;5.50;92.00;;;;;;5012843;28;20475;-73
2023/02/04 01:36:09;;;;;;;1.25;0.90;;;5.50;92.20;;;;;;5011254;28;20029;-74
2023/02/04 01:38:35;;;;;;;3.42;1.02;;;5.50;92.40;;;;;;5012556;28;20025;-74
2023/02/04 01:41:02;;;;;;;2.40;1.20;;;5.50;92.70;;;;;;4995253;28;20088;-73
2023/02/04 01:43:28;;;;;;;1.35;1.00;;;5.50;92.90;;;;;;5012777;28;20060;-74
2023/02/04 01:45:54;;;;;;;2.45;1.75;;;5.60;92.60;;;;;;5012616;28;20533;-74
2023/02/04 01:48:21;;;;;;;2.33;1.30;;;5.50;92.40;;;;;;5012457;28;20096;-74
2023/02/04 01:50:52;;;;;;;3.53;1.50;;;5.60;92.40;;;;;;5012775;28;20061;-74
2023/02/04 01:53:21;;;;;;;2.50;1.10;;;5.50;92.30;;;;;;5012807;28;20022;-74
2023/02/04 01:55:47;;;;;;;2.75;1.55;;;5.50;92.50;;;;;;5012668;28;20044;-74
2023/02/04 01:58:14;;;;;;;1.95;1.45;;;5.50;92.50;;;;;;5012431;28;20459;-74
2023/02/04 02:00:40;;;;;;;2.47;1.30;;;5.60;92.50;;;;;;5016383;28;20645;-75
2023/02/04 02:03:09;;;;;;;3.38;1.70;;;5.60;92.50;;;;;;5016256;28;20026;-74
2023/02/04 02:05:40;;;;;;;1.65;1.35;;;5.60;93.20;;;;;;5015873;28;20356;-75
2023/02/04 02:08:07;;;;;;;2.95;1.50;;;5.60;92.50;;;;;;5016126;28;20017;-75
2023/02/04 02:10:34;;;;;;;1.45;1.10;;;5.60;92.40;;;;;;5016106;28;20021;-74
2023/02/04 02:13:00;;;;;;;3.40;2.05;;;5.70;92.70;;;;;;5015957;28;20052;-74
2023/02/04 02:15:26;;;;;;;3.05;1.60;;;5.70;92.40;;;;;;5015704;28;20033;-75
2023/02/04 02:17:53;;;;;;;2.85;1.48;;;5.60;92.40;;;;;;5001765;28;20033;-75
2023/02/04 02:20:21;;;;;;;3.47;1.60;;;5.60;92.40;;;;;;4996133;28;20026;-75
2023/02/04 02:23:03;;;;;;;2.05;1.50;;;5.70;92.60;;;;;;4996250;28;20041;-75
2023/02/04 02:25:28;;;;;;;3.25;1.58;;;5.60;92.50;;;;;;4978901;28;20030;-75
2023/02/04 02:27:55;;;;;;;2.08;1.50;;;5.70;92.70;;;;;;4996289;28;20037;-75
2023/02/04 02:30:21;;;;;;;3.38;1.80;;;5.60;92.50;;;;;;4996137;28;20055;-75
2023/02/04 02:32:49;;;;;;;2.70;1.70;;;5.60;92.60;;;;;;4996026;28;20023;-75
2023/02/04 02:35:15;;;;;;;2.95;1.75;;;5.60;92.60;;;;;;4996151;28;20023;-75
2023/02/04 02:37:41;;;;;;;3.22;1.80;;;5.70;92.60;;;;;;4978462;28;20121;-74
2023/02/04 02:40:08;;;;;;;2.15;1.65;;;5.60;92.40;;;;;;4996020;28;20085;-74
2023/02/04 02:42:34;;;;;;;2.80;1.40;;;5.60;92.50;;;;;;4995758;28;20057;-75
2023/02/04 02:45:13;;;;;;;2.28;1.58;;;5.60;92.40;;;;;;4995890;28;20044;-74
2023/02/04 02:47:39;;;;;;;2.00;1.02;;;5.70;92.50;;;;;;4995615;28;20066;-75
2023/02/04 02:50:05;;;;;;;1.50;1.23;;;5.70;92.20;;;;;;4995604;28;20038;-75
2023/02/04 02:52:30;;;;;;;1.42;1.20;;;5.70;92.00;;;;;;4995799;28;20046;-76
2023/02/04 02:54:56;;;;;;;2.15;1.25;;;5.80;91.90;;;;;;4995539;28;20081;-75
2023/02/04 02:57:22;;;;;;;2.15;1.40;;;5.80;91.70;;;;;;4995858;28;20018;-76
2023/02/04 02:59:48;;;;;;;1.25;1.00;;;5.80;91.50;;;;;;4995560;28;20065;-75
2023/02/04 03:02:20;;;;;;;3.08;1.73;;;5.80;91.40;;;;;;4995451;28;20023;-75
2023/02/04 03:04:54;;;;;;;1.77;0.93;;;5.80;91.50;;;;;;4995473;28;20030;-74
2023/02/04 03:07:21;;;;;;;1.30;1.05;;;5.90;91.30;;;;;;4995391;28;20503;-80
2023/02/04 03:09:48;;;;;;;0.95;0.68;;;5.90;91.30;;;;;;4995049;28;20046;-77
2023/02/04 03:12:14;;;;;;;2.05;0.90;;;5.90;91.10;;;;;;4977922;28;20018;-80
2023/02/04 03:14:40;;;;;;;1.23;0.90;;;5.90;91.00;;;;;;4995312;28;20379;-79
2023/02/04 03:17:08;;;;;;;0.95;0.90;;;5.90;90.90;;;;;;4995244;28;20034;-80
2023/02/04 03:19:35;;;;;;;0.82;0.80;;;5.90;90.70;;;;;;4995971;28;20109;-79
2023/02/04 03:22:02;;;;;;;1.55;0.80;;;5.90;90.80;;;;;;4998254;28;20510;-74
2023/02/04 03:24:27;;;;;;;0.65;0.65;;;5.90;90.60;;;;;;4997403;28;20038;-74
2023/02/04 03:26:53;;;;;;;2.42;0.80;;;5.90;90.50;;;;;;4995116;28;20069;-76
2023/02/04 03:29:18;;;;;;;0.75;0.73;;;5.90;90.40;;;;;;4994980;28;20395;-78
2023/02/04 03:31:44;;;;;;;0.63;0.63;;;5.90;90.40;;;;;;4995153;28;20026;-77
2023/02/04 03:34:09;;;;;;;0.95;0.80;;;6.00;90.40;;;;;;4994809;28;20037;-79
2023/02/04 03:36:35;;;;;;;2.22;0.80;;;5.90;90.20;;;;;;4994992;28;20030;-82
2023/02/04 03:39:01;;;;;;;0.60;0.60;;;5.90;90.30;;;;;;4994799;28;20101;-80
2023/02/04 03:41:28;;;;;;;1.10;0.80;;;5.90;90.50;;;;;;4977318;28;20035;-75
2023/02/04 03:43:54;;;;;;;0.50;0.50;;;6.00;90.50;;;;;;4994749;28;20026;-75
2023/02/04 03:46:22;;;;;;;0.90;0.60;;;6.00;90.60;;;;;;4994534;28;20035;-75
2023/02/04 03:48:47;;;;;;;0.50;0.50;;;5.90;90.90;;;;;;4994438;28;20403;-76
2023/02/04 03:51:13;;;;;;;0.60;0.60;;;6.00;90.90;;;;;;4994691;28;20022;-75
2023/02/04 03:53:38;;;;;;;2.65;0.60;;;6.00;91.00;;;;;;4994469;28;20073;-75
2023/02/04 03:56:04;;;;;;;0.73;0.65;;;5.90;91.10;;;;;;4994555;28;20030;-75
2023/02/04 03:58:29;;;;;;;1.15;0.90;;;5.90;91.20;;;;;;4977029;28;20025;-75
2023/02/04 04:00:55;;;;;;;1.17;0.80;;;5.90;91.30;;;;;;4994432;28;20085;-75
2023/02/04 04:03:20;;;;;;;2.42;0.80;;;5.90;91.40;;;;;;4994088;28;20027;-75
2023/02/04 04:05:46;;;;;;;1.05;0.50;;;5.90;91.40;;;;;;4976915;28;20026;-75
2023/02/04 04:08:11;;;;;;;0.68;0.47;;;5.90;91.50;;;;;;4994278;28;20026;-75
2023/02/04 04:10:37;;;;;;;2.70;0.68;;;5.90;91.50;;;;;;4994190;28;20068;-75
2023/02/04 04:13:03;;;;;;;3.90;0.70;;;5.90;91.70;;;;;;4976565;28;20018;-75
2023/02/04 04:15:29;;;;;;;1.05;0.80;;;5.90;91.80;;;;;;4976800;28;20080;-75
2023/02/04 04:17:55;;;;;;;0.70;0.70;;;5.90;91.80;;;;;;4994277;28;20097;-75
2023/02/04 04:20:24;;;;;;;0.80;0.63;;;5.90;92.60;;;;;;4993370;28;20479;-74
2023/02/04 04:22:50;;;;;;;1.38;0.77;;;5.90;92.00;;;;;;4994090;28;20033;-75
2023/02/04 04:25:16;;;;;;;0.98;0.60;;;5.90;92.00;;;;;;4994332;28;20547;-75
2023/02/04 04:27:41;;;;;;;1.55;0.80;;;6.00;92.00;;;;;;4994028;28;20113;-74
2023/02/04 04:30:07;;;;;;;1.20;0.93;;;5.90;92.10;;;;;;4993742;28;20510;-74
2023/02/04 04:32:33;;;;;;;3.40;0.70;;;5.90;92.20;;;;;;4993761;28;20029;-76
2023/02/04 04:34:58;;;;;;;0.95;0.80;;;5.90;92.20;;;;;;4993931;28;20026;-75
2023/02/04 04:37:24;;;;;;;1.02;0.77;;;5.90;92.20;;;;;;4993702;28;20065;-75
2023/02/04 04:39:49;;;;;;;1.40;1.08;;;5.90;92.10;;;;;;4993573;28;20026;-75
2023/02/04 04:42:15;;;;;;;1.38;1.13;;;5.90;92.20;;;;;;4993828;28;20054;-75
2023/02/04 04:44:41;;;;;;;1.85;0.90;;;6.00;92.20;;;;;;4993735;28;20037;-76
2023/02/04 04:47:06;;;;;;;0.85;0.85;;;6.00;92.20;;;;;;4993451;28;20376;-76
2023/02/04 04:49:32;;;;;;;1.88;1.10;;;6.00;92.20;;;;;;4993615;28;20509;-74
2023/02/04 04:51:57;;;;;;;1.52;0.95;;;6.00;92.20;;;;;;4993729;28;20387;-76
2023/02/04 04:54:23;;;;;;;1.00;0.90;;;5.90;92.30;;;;;;4993624;28;20100;-75
2023/02/04 04:56:48;;;;;;;0.90;0.75;;;5.90;92.40;;;;;;4993440;28;20022;-75
2023/02/04 04:59:14;;;;;;;1.13;0.88;;;5.90;92.50;;;;;;4997335;28;20026;-75
2023/02/04 05:01:40;;;;;;;0.70;0.70;;;5.90;92.50;;;;;;5006878;28;20018;-74
2023/02/04 05:04:06;;;;;;;0.95;0.77;;;6.00;92.60;;;;;;4993721;28;20030;-75
2023/02/04 05:06:32;;;;;;;0.70;0.70;;;6.00;92.50;;;;;;4993451;28;20014;-74
2023/02/04 05:08:57;;;;;;;1.20;0.82;;;6.00;92.50;;;;;;4993461;28;20041;-74
2023/02/04 05:11:23;;;;;;;0.80;0.63;;;6.00;93.20;;;;;;4993495;28;20022;-74
2023/02/04 05:13:48;;;;;;;2.58;0.82;;;6.00;92.40;;;;;;4993367;28;20360;-76
2023/02/04 05:16:15;;;;;;;1.15;0.93;;;6.00;92.40;;;;;;4993569;28;20061;-75
2023/02/04 05:18:41;;;;;;;1.23;0.90;;;6.00;92.40;;;;;;4993498;28;20018;-76
2023/02/04 05:21:07;;;;;;;1.67;1.00;;;6.00;92.40;;;;;;4993610;28;20475;-75
2023/02/04 05:23:33;;;;;;;1.90;1.13;;;6.00;92.60;;;;;;4993147;28;20046;-75
2023/02/04 05:25:58;;;;;;;0.80;0.80;;;5.90;92.70;;;;;;4993441;28;20034;-75
2023/02/04 05:28:24;;;;;;;1.08;0.90;;;6.00;92.70;;;;;;4993409;28;20038;-75
2023/02/04 05:30:50;;;;;;;1.63;0.98;;;5.90;92.80;;;;;;4993460;28;20034;-75
2023/02/04 05:33:15;;;;;;;2.28;1.30;;;5.90;92.70;;;;;;4994473;28;20042;-75
2023/02/04 05:35:41;;;;;;;2.47;1.20;;;6.00;92.90;;;;;;4997098;28;20030;-75
2023/02/04 05:38:07;;;;;;;1.10;1.00;;;6.00;92.90;;;;;;4996911;28;20084;-75
2023/02/04 05:40:32;;;;;;;0.47;0.47;;;6.00;92.90;;;;;;4996946;28;20175;-75
2023/02/04 05:42:58;;;;;;;1.65;0.85;;;5.90;92.60;;;;;;4997016;28;20054;-75
2023/02/04 05:45:23;;;;;;;1.05;0.90;;;5.90;93.00;;;;;;4996975;28;20030;-75
2023/02/04 05:47:49;;;;;;;3.30;2.10;;;5.80;93.20;;;;;;4979454;28;20057;-75
2023/02/04 05:50:15;;;;;;;5.22;3.20;;;5.80;93.40;;;;;;4996798;28;20038;-75
2023/02/04 05:52:40;;;;;;;4.72;2.83;;;5.90;93.50;;;;;;4996711;28;20023;-75
2023/02/04 05:55:07;;;;;;;2.20;1.92;;;5.90;93.60;;;;;;4996720;28;20029;-75
2023/02/04 05:57:33;;;;;;;2.97;2.15;;;5.80;93.40;;;;;;4996624;28;20419;-75
2023/02/04 05:59:58;;;;;;;1.92;1.58;;;5.90;93.50;;;;;;4978991;28;20084;-75
2023/02/04 06:02:24;;;;;;;2.08;1.67;;;5.90;93.50;;;;;;4996474;28;20391;-76
2023/02/04 06:04:49;;;;;;;1.88;1.60;;;5.90;93.40;;;;;;4996560;28;20426;-75
2023/02/04 06:07:15;;;;;;;2.47;1.23;;;5.90;93.30;;;;;;4996510;28;20057;-75
2023/02/04 06:09:40;;;;;;;2.28;1.50;;;5.90;93.30;;;;;;4996166;28;20034;-79
2023/02/04 06:12:06;;;;;;;2.83;1.40;;;6.00;93.30;;;;;;4996494;28;20030;-76
2023/02/04 06:14:31;;;;;;;1.63;1.52;;;6.00;93.20;;;;;;4996393;28;20030;-76
2023/02/04 06:17:00;;;;;;;1.63;1.50;;;6.00;93.30;;;;;;4975447;28;20023;-76
2023/02/04 06:19:26;;;;;;;1.55;1.35;;;6.10;93.40;;;;;;4992059;28;20042;-76
2023/02/04 06:21:51;;;;;;;1.38;1.27;;;6.10;93.40;;;;;;4995935;28;20029;-75
2023/02/04 06:24:17;;;;;;;1.27;1.15;;;6.10;93.00;;;;;;4996177;28;20026;-75
2023/02/04 06:26:42;;;;;;;0.70;0.70;;;6.00;92.50;;;;;;4996135;28;20072;-76
2023/02/04 06:29:08;;;;;;;1.67;0.80;;;6.00;92.60;;;;;;4995993;28;20121;-75
2023/02/04 06:31:36;;;;;;;3.03;1.63;;;6.00;91.50;;;;;;4996026;28;20388;-76
2023/02/04 06:34:02;;;;;;;4.32;1.13;;;5.90;90.10;;;;;;4978538;28;20033;-77
2023/02/04 06:36:27;;;;;;;2.35;0.57;;;5.90;88.30;;;;;;4978297;28;20383;-75
2023/02/04 06:38:53;;;;;;;3.22;0.80;;;5.90;87.80;;;;;;4996091;28;20026;-76
2023/02/04 06:41:19;;;;;;;4.38;1.08;;;5.80;87.90;;;;;;4995872;28;20054;-74
2023/02/04 06:43:44;;;;;;;3.25;1.23;;;5.70;88.20;;;;;;4995652;28;20189;-76
2023/02/04 06:46:49;;;;;;;6.00;2.80;;;5.70;88.50;;;;;;4995787;28;20034;-77
2023/02/04 06:49:15;;;;;;;4.20;2.10;;;5.60;88.30;;;;;;4916662;29;20047;-73
2023/02/04 06:51:41;;;;;;;5.45;1.88;;;5.60;88.70;;;;;;4916696;29;20040;-74
2023/02/04 06:54:06;;;;;;;4.00;1.55;;;5.50;89.10;;;;;;4944749;28;20031;-75
2023/02/04 06:56:32;;;;;;;2.38;1.40;;;5.50;89.30;;;;;;4976164;28;20379;-75
2023/02/04 06:58:57;;;;;;;3.33;1.90;;;5.60;89.40;;;;;;4958800;28;20070;-76
2023/02/04 07:01:23;;;;;;;5.65;1.90;;;5.60;89.30;;;;;;4975944;28;20369;-76
2023/02/04 07:03:48;;;;;;;3.83;1.30;;;5.60;89.20;;;;;;4976039;28;20019;-75
2023/02/04 07:06:14;;;;;;;2.78;0.95;;;5.60;88.90;;;;;;4982015;28;20035;-75
2023/02/04 07:08:40;;;;;;;4.88;1.35;;;5.60;89.00;;;;;;4977730;28;20069;-75
2023/02/04 07:11:05;;;;;;;5.70;1.42;;;5.60;89.00;;;;;;4978581;28;20034;-76
2023/02/04 07:13:31;;;;;;;3.83;1.30;;;5.60;88.90;;;;;;4976062;28;20031;-76
2023/02/04 07:15:56;;;;;;;5.43;1.25;;;5.50;88.50;;;;;;4975982;28;20026;-77
2023/02/04 07:18:22;;;;;;;6.85;1.52;;;5.60;88.80;;;;;;4976221;28;20034;-74
2023/02/04 07:20:48;;;;;;;3.15;1.27;;;5.60;88.70;;;;;;4976062;28;20019;-73
2023/02/04 07:23:13;;;;;;;3.45;1.10;;;5.60;88.50;;;;;;4975855;28;20030;-74
2023/02/04 07:25:39;;;;;;;1.90;1.13;;;5.60;88.10;;;;;;4975540;28;20030;-74
2023/02/04 07:28:05;;;;;;;2.90;1.20;;;5.60;88.00;;;;;;4975549;28;20046;-73
2023/02/04 07:30:33;;;;;;;2.45;1.02;;;5.70;88.00;;;;;;4975400;28;20101;-75
2023/02/04 07:32:59;;;;;;;3.70;1.13;;;5.70;87.40;;;;;;4975356;28;20046;-74
2023/02/04 07:35:25;;;;;;;1.67;1.10;;;5.60;87.10;;;;;;4975268;28;20495;-76
2023/02/04 07:37:50;;;;;;;6.20;1.98;;;5.60;87.10;;;;;;4975204;28;20023;-75
2023/02/04 07:40:16;;;;;;;3.85;1.58;;;5.50;87.00;;;;;;4975143;28;20038;-76
2023/02/04 07:42:41;;;;;;;1.73;1.10;;;5.40;87.00;;;;;;4974958;28;20491;-74
2023/02/04 07:45:07;;;;;;;4.10;0.95;;;5.50;87.50;;;;;;4974974;28;20476;-75
2023/02/04 07:47:33;;;;;;;6.05;1.00;;;5.60;87.70;;;;;;4981108;28;20042;-75
2023/02/04 07:49:59;;;;;;;3.72;1.30;;;5.50;86.70;;;;;;4994335;28;20093;-76
2023/02/04 07:52:25;;;;;;;6.75;3.10;;;5.60;87.50;;;;;;4994394;28;20410;-78
2023/02/04 07:54:51;;;;;;;5.78;2.25;;;5.70;87.40;;;;;;4994122;28;20097;-76
2023/02/04 07:57:18;;;;;;;6.25;1.10;;;5.70;86.60;;;;;;4976204;28;20022;-73
2023/02/04 07:59:44;;;;;;;1.30;0.63;;;5.70;88.60;;;;;;4994119;28;20022;-73
2023/02/04 08:02:10;;;;;;;6.43;1.70;;;5.90;90.20;;;;;;4994215;28;20550;-74
2023/02/04 08:04:36;;;;;;;6.30;2.20;;;6.10;88.70;;;;;;4993860;28;20510;-74
2023/02/04 08:07:02;;;;;;;4.88;1.58;;;6.80;88.30;;;;;;4994041;28;20022;-74
2023/02/04 08:09:28;;;;;;;6.28;2.67;;;7.10;84.80;;;;;;4993819;28;20034;-73
2023/02/04 08:11:54;;;;;;;6.47;3.45;;;7.70;82.50;;;;;;4994120;28;20134;-74
2023/02/04 08:14:20;;;;;;;7.00;3.63;;;7.90;80.30;;;;;;4994087;28;20463;-74
2023/02/04 08:16:45;;;;;;;8.77;4.85;;;8.10;80.20;;;;;;4993926;28;20022;-75
2023/02/04 08:19:17;;;;;;;8.50;5.97;;;8.00;79.00;;;;;;4993923;28;20034;-74
2023/02/04 08:21:44;;;;;;;9.23;5.53;;;7.80;80.40;;;;;;4993828;28;20015;-75
2023/02/04 08:24:14;;;;;;;10.20;4.90;;;7.50;79.90;;;;;;4993883;28;20022;-75
2023/02/04 08:26:40;;;;;;;10.02;3.88;;;7.30;80.40;;;;;;4993588;28;20026;-76
2023/02/04 08:29:07;;;;;;;7.45;3.55;;;7.10;81.80;;;;;;4993744;28;20092;-74
2023/02/04 08:31:32;;;;;;;4.72;2.92;;;7.00;81.50;;;;;;4993661;28;20069;-74
2023/02/04 08:33:58;;;;;;;4.55;2.60;;;6.90;82.00;;;;;;4975750;28;20030;-74
2023/02/04 08:36:23;;;;;;;8.73;2.47;;;6.80;82.40;;;;;;4993527;28;20037;-75
2023/02/04 08:38:49;;;;;;;8.73;2.80;;;6.70;82.70;;;;;;4993533;28;20022;-75
2023/02/04 08:41:15;;;;;;;6.28;3.03;;;6.60;82.80;;;;;;4993415;28;20034;-75
2023/02/04 08:43:40;;;;;;;5.45;3.00;;;6.60;83.00;;;;;;4993319;28;20101;-75
2023/02/04 08:46:06;;;;;;;8.43;3.35;;;6.60;83.30;;;;;;4993487;28;20538;-75
2023/02/04 08:48:32;;;;;;;6.30;3.67;;;6.60;83.70;;;;;;4993174;28;20052;-75
2023/02/04 08:50:57;;;;;;;5.95;3.38;;;6.60;83.70;;;;;;4993435;28;20058;-75
2023/02/04 08:53:23;;;;;;;10.93;4.60;;;6.60;83.60;;;;;;4993018;28;20468;-75
2023/02/04 08:55:48;;;;;;;10.65;4.57;;;6.60;83.60;;;;;;4999623;28;20317;-75
2023/02/04 08:58:14;;;;;;;6.43;3.75;;;6.60;83.80;;;;;;5004929;28;20027;-75
2023/02/04 09:00:39;;;;;;;13.23;4.43;;;6.60;83.80;;;;;;4993517;28;20108;-75
2023/02/04 09:03:05;;;;;;;11.07;3.70;;;6.50;83.60;;;;;;4975882;28;20029;-74
2023/02/04 09:05:30;;;;;;;10.15;3.53;;;6.40;83.40;;;;;;4993291;28;20026;-75
2023/02/04 09:07:56;;;;;;;12.23;4.10;;;6.40;83.70;;;;;;4995425;28;20066;-75
2023/02/04 09:10:21;;;;;;;13.43;3.63;;;6.50;84.00;;;;;;4997165;28;20042;-75
2023/02/04 09:12:47;;;;;;;11.52;4.63;;;6.50;84.30;;;;;;4997041;28;20022;-76
2023/02/04 09:15:13;;;;;;;10.27;4.40;;;6.60;84.30;;;;;;4996996;28;20057;-76
2023/02/04 09:17:38;;;;;;;13.48;4.07;;;6.50;84.60;;;;;;4997115;28;20317;-75
2023/02/04 09:20:05;;;;;;;16.35;4.65;;;6.50;84.20;;;;;;4997018;28;20467;-75
2023/02/04 09:22:31;;;;;;;11.85;3.88;;;6.50;84.20;;;;;;4996979;28;20023;-76
2023/02/04 09:24:56;;;;;;;15.73;5.03;;;6.50;84.00;;;;;;4995614;28;20030;-74
2023/02/04 09:27:22;;;;;;;13.13;4.38;;;6.50;83.70;;;;;;4995494;28;20475;-74
2023/02/04 09:29:47;;;;;;;12.98;5.13;;;6.60;83.60;;;;;;4995774;28;20045;-74
2023/02/04 09:32:13;;;;;;;14.50;4.60;;;6.60;83.40;;;;;;4996223;28;20029;-75
2023/02/04 09:34:39;;;;;;;12.75;4.72;;;6.70;83.30;;;;;;4996865;28;20057;-75
2023/02/04 09:37:04;;;;;;;16.10;4.57;;;6.80;82.40;;;;;;4978826;28;20535;-75
2023/02/04 09:39:30;;;;;;;15.77;4.63;;;6.90;81.40;;;;;;4995960;28;20034;-75
2023/02/04 09:41:57;;;;;;;15.13;4.25;;;6.90;80.60;;;;;;4996536;28;20105;-74
2023/02/04 09:44:25;;;;;;;19.92;5.35;;;6.90;80.10;;;;;;4996065;28;20054;-74
2023/02/04 09:46:53;;;;;;;18.60;4.97;;;6.80;79.70;;;;;;4995883;28;20093;-74
2023/02/04 09:49:19;;;;;;;20.65;4.63;;;6.70;80.20;;;;;;4996284;28;20253;-75
2023/02/04 09:51:46;;;;;;;16.27;4.55;;;6.70;80.50;;;;;;4978775;28;20134;-74
2023/02/04 09:54:14;;;;;;;21.52;5.10;;;6.60;80.70;;;;;;4978889;28;20481;-74
2023/02/04 09:56:40;;;;;;;15.73;4.60;;;6.70;81.10;;;;;;4978727;28;20073;-76
2023/02/04 09:59:14;;;;;;;13.70;4.13;;;6.60;81.30;;;;;;4996149;28;20050;-74
2023/02/04 10:01:40;;;;;;;14.87;4.47;;;6.60;81.60;;;;;;4996133;28;20022;-75
2023/02/04 10:04:12;;;;;;;16.77;4.03;;;6.50;81.50;;;;;;4996113;28;20265;-74
2023/02/04 10:06:39;;;;;;;17.05;4.60;;;6.50;81.70;;;;;;4996089;28;20106;-74
2023/02/04 10:09:05;;;;;;;14.40;4.40;;;6.50;81.70;;;;;;4995891;28;20117;-75
2023/02/04 10:11:35;;;;;;;19.27;4.70;;;6.50;81.70;;;;;;4995854;28;20065;-75
2023/02/04 10:14:00;;;;;;;12.05;4.00;;;6.40;82.10;;;;;;4995609;28;20088;-75
2023/02/04 10:16:31;;;;;;;18.55;4.35;;;6.40;82.00;;;;;;4995839;28;20030;-75
2023/02/04 10:19:02;;;;;;;17.00;4.25;;;6.50;82.10;;;;;;5008840;28;20036;-74
2023/02/04 10:21:31;;;;;;;26.35;5.20;;;6.50;81.60;;;;;;5015144;28;20026;-77
2023/02/04 10:23:59;;;;;;;14.93;3.72;;;6.60;80.60;;;;;;5015195;28;20032;-77
2023/02/04 10:26:28;;;;;;;14.27;4.20;;;6.70;80.60;;;;;;5015576;28;20026;-76
2023/02/04 10:29:02;;;;;;;20.35;4.15;;;6.80;79.80;;;;;;5015308;28;20434;-76
2023/02/04 10:31:29;;;;;;;19.70;4.60;;;6.90;79.60;;;;;;5015210;28;20418;-74
2023/02/04 10:34:12;;;;;;;22.20;5.43;;;7.10;79.20;;;;;;5014527;28;20489;-74
2023/02/04 10:36:40;;;;;;;15.50;4.43;;;7.20;78.50;;;;;;5014405;28;20096;-75
2023/02/04 10:39:22;;;;;;;17.58;4.90;;;7.40;76.40;;;;;;5014639;28;20474;-74
2023/02/04 10:41:55;;;;;;;18.23;4.68;;;7.50;76.30;;;;;;5014898;28;20030;-75
2023/02/04 10:44:32;;;;;;;17.65;5.13;;;7.70;76.00;;;;;;5015047;28;20090;-77
2023/02/04 10:47:19;;;;;;;15.73;4.75;;;8.00;75.80;;;;;;5011059;28;20134;-77
2023/02/04 10:49:56;;;;;;;13.90;4.28;;;8.30;75.00;;;;;;4991860;28;20042;-76
2023/02/04 10:52:27;;;;;;;17.13;4.28;;;8.50;73.20;;;;;;4991449;28;20029;-80
2023/02/04 10:54:53;;;;;;;21.40;4.45;;;8.50;72.50;;;;;;4995881;28;20111;-75
2023/02/04 10:57:22;;;;;;;23.33;4.38;;;8.30;71.30;;;;;;4995988;28;20026;-75
2023/02/04 10:59:50;;;;;;;20.48;4.68;;;8.10;71.10;;;;;;4995745;28;20410;-75
2023/02/04 11:02:36;;;;;;;14.93;3.95;;;8.00;72.40;;;;;;4978845;28;20068;-75
2023/02/04 11:05:03;;;;;;;22.38;4.32;;;8.00;72.50;;;;;;4995193;28;20092;-74
2023/02/04 11:07:29;;;;;;;17.00;3.80;;;8.00;72.00;;;;;;4995828;28;20039;-77
2023/02/04 11:09:56;;;;;;;13.40;3.67;;;8.00;71.50;;;;;;5000286;28;20169;-74
2023/02/04 11:12:40;;;;;;;20.05;4.00;;;8.20;71.70;;;;;;5002408;28;20076;-75
2023/02/04 11:15:26;;;;;;;17.13;4.60;;;8.30;71.60;;;;;;4995661;28;20026;-74
2023/02/04 11:18:02;;;;;;;19.83;5.32;;;8.40;70.50;;;;;;4977198;28;20033;-74
2023/02/04 11:20:32;;;;;;;19.70;5.00;;;8.40;70.20;;;;;;4995093;28;20105;-74
2023/02/04 11:23:33;;;;;;;25.95;5.47;;;8.20;69.70;;;;;;4977064;28;20030;-74
2023/02/04 11:26:20;;;;;;;19.35;4.47;;;8.00;70.20;;;;;;4974756;28;20062;-74
2023/02/04 11:28:57;;;;;;;15.80;3.90;;;7.70;70.60;;;;;;4975213;28;20030;-74
2023/02/04 11:31:23;;;;;;;19.42;4.38;;;7.60;70.80;;;;;;4975021;28;20031;-74
2023/02/04 11:34:01;;;;;;;25.63;3.65;;;7.50;71.50;;;;;;4974885;28;20030;-74
2023/02/04 11:36:27;;;;;;;18.23;3.97;;;7.40;71.00;;;;;;4974967;28;20043;-74
2023/02/04 11:38:52;;;;;;;21.58;4.28;;;7.30;71.50;;;;;;4974830;28;20035;-75
2023/02/04 11:41:29;;;;;;;21.20;5.40;;;7.30;71.80;;;;;;4975143;28;20483;-74
2023/02/04 11:43:56;;;;;;;19.65;4.05;;;7.20;70.80;;;;;;4975197;28;20110;-75
2023/02/04 11:46:22;;;;;;;20.38;4.30;;;7.10;70.70;;;;;;4974994;28;20027;-74
2023/02/04 11:48:55;;;;;;;25.70;5.82;;;7.10;71.70;;;;;;4974604;28;20517;-74
2023/02/04 11:51:28;;;;;;;27.65;5.90;;;7.10;71.50;;;;;;4978052;28;20027;-77
2023/02/04 11:53:54;;;;;;;22.30;5.10;;;6.90;71.90;;;;;;4976036;28;20052;-76
2023/02/04 11:56:21;;;;;;;17.85;3.85;;;7.00;72.10;;;;;;4975283;28;20528;-79
2023/02/04 11:58:47;;;;;;;22.52;4.15;;;7.10;72.10;;;;;;4974961;28;20026;-75
2023/02/04 12:01:24;;;;;;;22.58;4.57;;;7.30;71.80;;;;;;4974486;28;20034;-74
2023/02/04 12:03:56;;;;;;;22.75;5.57;;;7.30;71.40;;;;;;4974458;28;20109;-75
2023/02/04 12:06:28;;;;;;;15.90;3.85;;;7.40;71.00;;;;;;4974825;28;20019;-77
2023/02/04 12:09:16;;;;;;;22.63;3.88;;;7.50;70.70;;;;;;4974402;28;20027;-74
2023/02/04 12:12:03;;;;;;;13.75;3.88;;;7.60;71.00;;;;;;4975008;28;20027;-74
2023/02/04 12:14:36;;;;;;;19.17;3.92;;;7.60;70.60;;;;;;4973917;28;20026;-74
2023/02/04 12:17:19;;;;;;;22.02;4.78;;;7.70;70.70;;;;;;4974451;28;20038;-74
2023/02/04 12:19:45;;;;;;;19.90;4.30;;;7.90;71.00;;;;;;4974423;28;20019;-75
2023/02/04 12:22:10;;;;;;;19.35;5.13;;;7.70;69.90;;;;;;4974420;28;20115;-74
2023/02/04 12:24:36;;;;;;;25.83;5.30;;;7.60;70.50;;;;;;4974518;28;20050;-74
2023/02/04 12:27:01;;;;;;;22.77;4.47;;;7.50;71.90;;;;;;4957120;28;20471;-74
2023/02/04 12:29:27;;;;;;;27.63;5.15;;;7.50;72.10;;;;;;4974137;28;20057;-74
2023/02/04 12:31:52;;;;;;;19.02;5.43;;;7.50;72.00;;;;;;4974388;28;20027;-74
2023/02/04 12:34:18;;;;;;;20.80;4.53;;;7.40;72.60;;;;;;4974231;28;20475;-74
2023/02/04 12:36:43;;;;;;;13.18;4.68;;;7.30;72.70;;;;;;4974183;28;20038;-78
2023/02/04 12:39:09;;;;;;;18.70;4.82;;;7.40;72.60;;;;;;4974706;28;20023;-75
2023/02/04 12:41:35;;;;;;;20.00;4.78;;;7.50;72.80;;;;;;4973685;28;20018;-75
2023/02/04 12:44:01;;;;;;;16.58;4.55;;;7.40;72.60;;;;;;4974246;28;20026;-74
2023/02/04 12:46:27;;;;;;;17.02;3.63;;;7.50;71.20;;;;;;4974113;28;20479;-75
2023/02/04 12:48:53;;;;;;;15.30;3.58;;;7.60;70.40;;;;;;4973643;28;20050;-74
2023/02/04 12:51:19;;;;;;;16.98;4.22;;;7.70;70.00;;;;;;4973644;28;20027;-74
2023/02/04 12:53:47;;;;;;;12.35;3.25;;;7.80;69.20;;;;;;4973899;28;20029;-78